sensor_id;sensor_type;location;lat;lon;timestamp;P1;durP1;ratioP1;P2;durP2;ratioP2
54269;SDS011;40181;51.560;13.000;2022-12-18T00:01:42;16.15;;;13.00;;
54269;SDS011;40181;51.560;13.000;2022-12-18T00:04:15;19.25;;;14.13;;
54269;SDS011;40181;51.560;13.000;2022-12-18T00:06:49;17.38;;;14.23;;
54269;SDS011;40181;51.560;13.000;2022-12-18T00:09:19;15.85;;;11.65;;
54269;SDS011;40181;51.560;13.000;2022-12-18T00:11:51;19.15;;;12.85;;
54269;SDS011;40181;51.560;13.000;2022-12-18T00:14:20;24.95;;;15.70;;
54269;SDS011;40181;51.560;13.000;2022-12-18T00:16:50;21.85;;;15.10;;
54269;SDS011;40181;51.560;13.000;2022-12-18T00:19:19;24.25;;;15.95;;
54269;SDS011;40181;51.560;13.000;2022-12-18T00:21:48;17.95;;;14.40;;
54269;SDS011;40181;51.560;13.000;2022-12-18T00:24:17;18.33;;;13.85;;
54269;SDS011;40181;51.560;13.000;2022-12-18T00:26:46;23.25;;;16.02;;
54269;SDS011;40181;51.560;13.000;2022-12-18T00:29:18;16.90;;;13.40;;
54269;SDS011;40181;51.560;13.000;2022-12-18T00:31:47;22.38;;;14.73;;
54269;SDS011;40181;51.560;13.000;2022-12-18T00:34:16;20.98;;;13.95;;
54269;SDS011;40181;51.560;13.000;2022-12-18T00:36:46;22.10;;;15.40;;
54269;SDS011;40181;51.560;13.000;2022-12-18T00:41:46;14.43;;;12.40;;
54269;SDS011;40181;51.560;13.000;2022-12-18T00:44:30;25.25;;;14.23;;
54269;SDS011;40181;51.560;13.000;2022-12-18T00:46:59;15.43;;;12.30;;
54269;SDS011;40181;51.560;13.000;2022-12-18T00:49:28;21.67;;;14.82;;
54269;SDS011;40181;51.560;13.000;2022-12-18T00:51:57;19.00;;;13.13;;
54269;SDS011;40181;51.560;13.000;2022-12-18T00:54:27;19.02;;;13.45;;
54269;SDS011;40181;51.560;13.000;2022-12-18T00:56:56;17.83;;;14.35;;
54269;SDS011;40181;51.560;13.000;2022-12-18T00:59:25;16.10;;;13.00;;
54269;SDS011;40181;51.560;13.000;2022-12-18T01:01:57;20.92;;;13.60;;
54269;SDS011;40181;51.560;13.000;2022-12-18T01:04:26;17.20;;;14.52;;
54269;SDS011;40181;51.560;13.000;2022-12-18T01:06:56;21.88;;;15.95;;
54269;SDS011;40181;51.560;13.000;2022-12-18T01:09:25;22.63;;;15.02;;
54269;SDS011;40181;51.560;13.000;2022-12-18T01:11:54;18.27;;;14.15;;
54269;SDS011;40181;51.560;13.000;2022-12-18T01:14:23;16.33;;;12.75;;
54269;SDS011;40181;51.560;13.000;2022-12-18T01:16:52;20.98;;;14.80;;
54269;SDS011;40181;51.560;13.000;2022-12-18T01:19:24;19.33;;;13.50;;
54269;SDS011;40181;51.560;13.000;2022-12-18T01:21:54;18.75;;;14.68;;
54269;SDS011;40181;51.560;13.000;2022-12-18T01:24:23;20.55;;;16.10;;
54269;SDS011;40181;51.560;13.000;2022-12-18T01:26:52;15.75;;;13.70;;
54269;SDS011;40181;51.560;13.000;2022-12-18T01:29:22;14.73;;;13.20;;
54269;SDS011;40181;51.560;13.000;2022-12-18T01:31:54;16.38;;;13.63;;
54269;SDS011;40181;51.560;13.000;2022-12-18T01:34:27;17.67;;;14.13;;
54269;SDS011;40181;51.560;13.000;2022-12-18T01:36:56;17.40;;;14.15;;
54269;SDS011;40181;51.560;13.000;2022-12-18T01:39:25;20.30;;;16.13;;
54269;SDS011;40181;51.560;13.000;2022-12-18T01:41:54;16.65;;;14.10;;
54269;SDS011;40181;51.560;13.000;2022-12-18T01:47:27;21.90;;;15.18;;
54269;SDS011;40181;51.560;13.000;2022-12-18T01:50:10;16.02;;;13.43;;
54269;SDS011;40181;51.560;13.000;2022-12-18T01:52:42;13.75;;;12.15;;
54269;SDS011;40181;51.560;13.000;2022-12-18T01:55:15;11.95;;;10.75;;
54269;SDS011;40181;51.560;13.000;2022-12-18T01:57:47;20.95;;;14.50;;
54269;SDS011;40181;51.560;13.000;2022-12-18T02:02:49;15.88;;;13.05;;
54269;SDS011;40181;51.560;13.000;2022-12-18T02:05:22;17.98;;;13.25;;
54269;SDS011;40181;51.560;13.000;2022-12-18T02:08:05;17.65;;;12.90;;
54269;SDS011;40181;51.560;13.000;2022-12-18T02:10:41;17.80;;;13.07;;
54269;SDS011;40181;51.560;13.000;2022-12-18T02:13:20;19.88;;;14.82;;
54269;SDS011;40181;51.560;13.000;2022-12-18T02:15:57;22.60;;;15.27;;
54269;SDS011;40181;51.560;13.000;2022-12-18T02:18:35;18.83;;;13.88;;
54269;SDS011;40181;51.560;13.000;2022-12-18T02:21:12;14.40;;;12.82;;
54269;SDS011;40181;51.560;13.000;2022-12-18T02:23:55;15.50;;;12.30;;
54269;SDS011;40181;51.560;13.000;2022-12-18T02:26:41;16.92;;;12.98;;
54269;SDS011;40181;51.560;13.000;2022-12-18T02:29:16;16.73;;;14.05;;
54269;SDS011;40181;51.560;13.000;2022-12-18T02:31:52;20.73;;;15.27;;
54269;SDS011;40181;51.560;13.000;2022-12-18T02:34:25;15.93;;;14.23;;
54269;SDS011;40181;51.560;13.000;2022-12-18T02:36:59;18.92;;;15.35;;
54269;SDS011;40181;51.560;13.000;2022-12-18T02:39:33;20.67;;;13.45;;
54269;SDS011;40181;51.560;13.000;2022-12-18T02:42:09;19.20;;;13.68;;
54269;SDS011;40181;51.560;13.000;2022-12-18T02:44:44;19.42;;;14.13;;
54269;SDS011;40181;51.560;13.000;2022-12-18T02:47:16;15.88;;;12.73;;
54269;SDS011;40181;51.560;13.000;2022-12-18T02:49:51;16.10;;;13.25;;
54269;SDS011;40181;51.560;13.000;2022-12-18T02:52:31;15.93;;;12.88;;
54269;SDS011;40181;51.560;13.000;2022-12-18T02:55:13;22.52;;;14.93;;
54269;SDS011;40181;51.560;13.000;2022-12-18T02:57:57;20.02;;;14.10;;
54269;SDS011;40181;51.560;13.000;2022-12-18T03:00:33;23.80;;;17.13;;
54269;SDS011;40181;51.560;13.000;2022-12-18T03:03:09;19.23;;;13.10;;
54269;SDS011;40181;51.560;13.000;2022-12-18T03:05:44;18.27;;;15.52;;
54269;SDS011;40181;51.560;13.000;2022-12-18T03:08:20;19.13;;;13.48;;
54269;SDS011;40181;51.560;13.000;2022-12-18T03:10:53;17.10;;;13.07;;
54269;SDS011;40181;51.560;13.000;2022-12-18T03:13:34;17.05;;;13.48;;
54269;SDS011;40181;51.560;13.000;2022-12-18T03:16:08;17.75;;;14.35;;
54269;SDS011;40181;51.560;13.000;2022-12-18T03:18:44;19.63;;;13.88;;
54269;SDS011;40181;51.560;13.000;2022-12-18T03:21:17;17.88;;;13.30;;
54269;SDS011;40181;51.560;13.000;2022-12-18T03:23:51;16.20;;;13.82;;
54269;SDS011;40181;51.560;13.000;2022-12-18T03:26:23;21.55;;;14.27;;
54269;SDS011;40181;51.560;13.000;2022-12-18T03:28:59;20.67;;;16.02;;
54269;SDS011;40181;51.560;13.000;2022-12-18T03:31:34;19.38;;;15.68;;
54269;SDS011;40181;51.560;13.000;2022-12-18T03:34:09;23.95;;;18.67;;
54269;SDS011;40181;51.560;13.000;2022-12-18T03:36:45;18.48;;;15.63;;
54269;SDS011;40181;51.560;13.000;2022-12-18T03:39:14;17.73;;;15.63;;
54269;SDS011;40181;51.560;13.000;2022-12-18T03:41:44;18.58;;;14.63;;
54269;SDS011;40181;51.560;13.000;2022-12-18T03:44:23;20.10;;;16.13;;
54269;SDS011;40181;51.560;13.000;2022-12-18T03:47:01;19.15;;;14.93;;
54269;SDS011;40181;51.560;13.000;2022-12-18T03:49:38;21.77;;;18.13;;
54269;SDS011;40181;51.560;13.000;2022-12-18T03:52:17;22.35;;;16.33;;
54269;SDS011;40181;51.560;13.000;2022-12-18T03:54:52;23.45;;;19.05;;
54269;SDS011;40181;51.560;13.000;2022-12-18T03:57:24;29.88;;;17.83;;
54269;SDS011;40181;51.560;13.000;2022-12-18T04:00:00;24.35;;;18.42;;
54269;SDS011;40181;51.560;13.000;2022-12-18T04:02:34;22.42;;;17.30;;
54269;SDS011;40181;51.560;13.000;2022-12-18T04:05:08;20.42;;;18.02;;
54269;SDS011;40181;51.560;13.000;2022-12-18T04:07:39;19.83;;;15.88;;
54269;SDS011;40181;51.560;13.000;2022-12-18T04:10:09;22.70;;;17.63;;
54269;SDS011;40181;51.560;13.000;2022-12-18T04:12:40;20.25;;;16.65;;
54269;SDS011;40181;51.560;13.000;2022-12-18T04:15:12;23.53;;;15.60;;
54269;SDS011;40181;51.560;13.000;2022-12-18T04:17:43;19.92;;;16.33;;
54269;SDS011;40181;51.560;13.000;2022-12-18T04:20:17;16.98;;;14.63;;
54269;SDS011;40181;51.560;13.000;2022-12-18T04:22:47;20.27;;;16.40;;
54269;SDS011;40181;51.560;13.000;2022-12-18T04:27:46;16.88;;;14.63;;
54269;SDS011;40181;51.560;13.000;2022-12-18T04:30:18;23.35;;;19.05;;
54269;SDS011;40181;51.560;13.000;2022-12-18T04:32:47;21.88;;;16.42;;
54269;SDS011;40181;51.560;13.000;2022-12-18T04:35:16;21.33;;;17.42;;
54269;SDS011;40181;51.560;13.000;2022-12-18T04:37:45;17.85;;;15.90;;
54269;SDS011;40181;51.560;13.000;2022-12-18T04:40:14;19.17;;;15.73;;
54269;SDS011;40181;51.560;13.000;2022-12-18T04:42:44;19.60;;;16.17;;
54269;SDS011;40181;51.560;13.000;2022-12-18T04:45:13;22.05;;;17.70;;
54269;SDS011;40181;51.560;13.000;2022-12-18T04:47:45;23.42;;;17.30;;
54269;SDS011;40181;51.560;13.000;2022-12-18T04:50:14;23.88;;;17.30;;
54269;SDS011;40181;51.560;13.000;2022-12-18T04:52:43;19.65;;;15.82;;
54269;SDS011;40181;51.560;13.000;2022-12-18T04:55:12;23.92;;;16.45;;
54269;SDS011;40181;51.560;13.000;2022-12-18T04:57:42;20.02;;;17.67;;
54269;SDS011;40181;51.560;13.000;2022-12-18T05:00:11;17.95;;;15.70;;
54269;SDS011;40181;51.560;13.000;2022-12-18T05:02:44;20.25;;;17.50;;
54269;SDS011;40181;51.560;13.000;2022-12-18T05:05:14;21.30;;;16.90;;
54269;SDS011;40181;51.560;13.000;2022-12-18T05:07:43;24.20;;;18.05;;
54269;SDS011;40181;51.560;13.000;2022-12-18T05:10:13;20.33;;;17.17;;
54269;SDS011;40181;51.560;13.000;2022-12-18T05:12:42;17.80;;;15.45;;
54269;SDS011;40181;51.560;13.000;2022-12-18T05:15:26;16.58;;;14.20;;
54269;SDS011;40181;51.560;13.000;2022-12-18T05:17:59;22.60;;;17.73;;
54269;SDS011;40181;51.560;13.000;2022-12-18T05:20:30;21.08;;;16.48;;
54269;SDS011;40181;51.560;13.000;2022-12-18T05:22:59;21.50;;;19.20;;
54269;SDS011;40181;51.560;13.000;2022-12-18T05:25:28;21.75;;;17.40;;
54269;SDS011;40181;51.560;13.000;2022-12-18T05:27:57;24.70;;;19.73;;
54269;SDS011;40181;51.560;13.000;2022-12-18T05:30:26;23.80;;;19.15;;
54269;SDS011;40181;51.560;13.000;2022-12-18T05:32:56;26.15;;;19.27;;
54269;SDS011;40181;51.560;13.000;2022-12-18T05:35:27;20.70;;;18.45;;
54269;SDS011;40181;51.560;13.000;2022-12-18T05:37:56;30.40;;;21.02;;
54269;SDS011;40181;51.560;13.000;2022-12-18T05:40:26;31.15;;;21.98;;
54269;SDS011;40181;51.560;13.000;2022-12-18T05:42:55;30.35;;;20.02;;
54269;SDS011;40181;51.560;13.000;2022-12-18T05:45:24;22.33;;;18.67;;
54269;SDS011;40181;51.560;13.000;2022-12-18T05:47:53;22.73;;;18.83;;
54269;SDS011;40181;51.560;13.000;2022-12-18T05:50:25;28.70;;;21.27;;
54269;SDS011;40181;51.560;13.000;2022-12-18T05:52:54;25.80;;;20.17;;
54269;SDS011;40181;51.560;13.000;2022-12-18T05:55:23;30.95;;;23.80;;
54269;SDS011;40181;51.560;13.000;2022-12-18T05:57:53;27.38;;;18.33;;
54269;SDS011;40181;51.560;13.000;2022-12-18T06:00:22;23.65;;;18.55;;
54269;SDS011;40181;51.560;13.000;2022-12-18T06:02:51;22.33;;;18.38;;
54269;SDS011;40181;51.560;13.000;2022-12-18T06:05:21;22.00;;;19.35;;
54269;SDS011;40181;51.560;13.000;2022-12-18T06:07:53;24.27;;;20.38;;
54269;SDS011;40181;51.560;13.000;2022-12-18T06:10:22;33.72;;;21.23;;
54269;SDS011;40181;51.560;13.000;2022-12-18T06:12:51;28.20;;;21.30;;
54269;SDS011;40181;51.560;13.000;2022-12-18T06:15:20;24.70;;;19.70;;
54269;SDS011;40181;51.560;13.000;2022-12-18T06:17:50;24.02;;;19.25;;
54269;SDS011;40181;51.560;13.000;2022-12-18T06:20:19;25.13;;;18.13;;
54269;SDS011;40181;51.560;13.000;2022-12-18T06:22:51;26.13;;;21.30;;
54269;SDS011;40181;51.560;13.000;2022-12-18T06:25:20;26.45;;;18.50;;
54269;SDS011;40181;51.560;13.000;2022-12-18T06:27:49;25.58;;;17.08;;
54269;SDS011;40181;51.560;13.000;2022-12-18T06:30:19;29.98;;;21.20;;
54269;SDS011;40181;51.560;13.000;2022-12-18T06:32:48;31.48;;;20.40;;
54269;SDS011;40181;51.560;13.000;2022-12-18T06:35:18;22.55;;;19.45;;
54269;SDS011;40181;51.560;13.000;2022-12-18T06:37:47;29.17;;;21.08;;
54269;SDS011;40181;51.560;13.000;2022-12-18T06:40:19;23.90;;;19.15;;
54269;SDS011;40181;51.560;13.000;2022-12-18T06:42:48;34.00;;;21.92;;
54269;SDS011;40181;51.560;13.000;2022-12-18T06:45:17;20.65;;;18.30;;
54269;SDS011;40181;51.560;13.000;2022-12-18T06:47:47;21.85;;;17.42;;
54269;SDS011;40181;51.560;13.000;2022-12-18T06:50:16;28.83;;;22.10;;
54269;SDS011;40181;51.560;13.000;2022-12-18T06:52:46;22.20;;;17.85;;
54269;SDS011;40181;51.560;13.000;2022-12-18T06:55:18;22.38;;;16.77;;
54269;SDS011;40181;51.560;13.000;2022-12-18T06:57:47;25.98;;;18.25;;
54269;SDS011;40181;51.560;13.000;2022-12-18T07:00:16;25.30;;;18.35;;
54269;SDS011;40181;51.560;13.000;2022-12-18T07:02:46;24.88;;;20.40;;
54269;SDS011;40181;51.560;13.000;2022-12-18T07:05:15;22.03;;;17.60;;
54269;SDS011;40181;51.560;13.000;2022-12-18T07:07:44;29.10;;;20.15;;
54269;SDS011;40181;51.560;13.000;2022-12-18T07:10:14;26.08;;;17.80;;
54269;SDS011;40181;51.560;13.000;2022-12-18T07:12:46;31.77;;;20.85;;
54269;SDS011;40181;51.560;13.000;2022-12-18T07:15:15;29.80;;;18.67;;
54269;SDS011;40181;51.560;13.000;2022-12-18T07:17:44;23.40;;;18.27;;
54269;SDS011;40181;51.560;13.000;2022-12-18T07:20:14;20.97;;;16.20;;
54269;SDS011;40181;51.560;13.000;2022-12-18T07:22:43;20.75;;;15.07;;
54269;SDS011;40181;51.560;13.000;2022-12-18T07:25:12;21.17;;;16.13;;
54269;SDS011;40181;51.560;13.000;2022-12-18T07:27:44;25.73;;;17.60;;
54269;SDS011;40181;51.560;13.000;2022-12-18T07:30:15;18.67;;;15.57;;
54269;SDS011;40181;51.560;13.000;2022-12-18T07:32:45;23.17;;;16.65;;
54269;SDS011;40181;51.560;13.000;2022-12-18T07:35:14;31.70;;;22.07;;
54269;SDS011;40181;51.560;13.000;2022-12-18T07:37:44;28.15;;;18.80;;
54269;SDS011;40181;51.560;13.000;2022-12-18T07:40:16;22.80;;;18.08;;
54269;SDS011;40181;51.560;13.000;2022-12-18T07:42:48;32.00;;;19.80;;
54269;SDS011;40181;51.560;13.000;2022-12-18T07:45:17;19.75;;;15.88;;
54269;SDS011;40181;51.560;13.000;2022-12-18T07:47:46;32.00;;;22.83;;
54269;SDS011;40181;51.560;13.000;2022-12-18T07:50:15;24.95;;;17.35;;
54269;SDS011;40181;51.560;13.000;2022-12-18T07:52:45;26.13;;;19.50;;
54269;SDS011;40181;51.560;13.000;2022-12-18T07:55:14;23.35;;;18.50;;
54269;SDS011;40181;51.560;13.000;2022-12-18T07:57:43;29.65;;;19.75;;
54269;SDS011;40181;51.560;13.000;2022-12-18T08:00:16;24.15;;;18.20;;
54269;SDS011;40181;51.560;13.000;2022-12-18T08:02:45;57.95;;;26.55;;
54269;SDS011;40181;51.560;13.000;2022-12-18T08:05:15;26.15;;;20.10;;
54269;SDS011;40181;51.560;13.000;2022-12-18T08:07:45;25.63;;;17.67;;
54269;SDS011;40181;51.560;13.000;2022-12-18T08:10:14;20.90;;;17.40;;
54269;SDS011;40181;51.560;13.000;2022-12-18T08:12:44;25.67;;;17.17;;
54269;SDS011;40181;51.560;13.000;2022-12-18T08:15:16;31.73;;;22.38;;
54269;SDS011;40181;51.560;13.000;2022-12-18T08:17:45;25.25;;;18.20;;
54269;SDS011;40181;51.560;13.000;2022-12-18T08:20:15;27.50;;;18.98;;
54269;SDS011;40181;51.560;13.000;2022-12-18T08:22:44;28.10;;;19.77;;
54269;SDS011;40181;51.560;13.000;2022-12-18T08:25:14;34.70;;;22.42;;
54269;SDS011;40181;51.560;13.000;2022-12-18T08:27:43;30.23;;;20.35;;
54269;SDS011;40181;51.560;13.000;2022-12-18T08:30:15;32.10;;;18.90;;
54269;SDS011;40181;51.560;13.000;2022-12-18T08:32:44;36.85;;;23.77;;
54269;SDS011;40181;51.560;13.000;2022-12-18T08:35:14;40.00;;;23.05;;
54269;SDS011;40181;51.560;13.000;2022-12-18T08:37:43;29.50;;;19.80;;
54269;SDS011;40181;51.560;13.000;2022-12-18T08:40:13;35.95;;;22.92;;
54269;SDS011;40181;51.560;13.000;2022-12-18T08:42:42;40.05;;;22.92;;
54269;SDS011;40181;51.560;13.000;2022-12-18T08:45:26;32.42;;;20.25;;
54269;SDS011;40181;51.560;13.000;2022-12-18T08:47:56;29.17;;;21.05;;
54269;SDS011;40181;51.560;13.000;2022-12-18T08:50:25;28.38;;;18.55;;
54269;SDS011;40181;51.560;13.000;2022-12-18T08:52:54;23.90;;;17.55;;
54269;SDS011;40181;51.560;13.000;2022-12-18T08:55:24;29.55;;;20.52;;
54269;SDS011;40181;51.560;13.000;2022-12-18T08:57:53;41.83;;;21.88;;
54269;SDS011;40181;51.560;13.000;2022-12-18T09:00:22;24.55;;;17.70;;
54269;SDS011;40181;51.560;13.000;2022-12-18T09:02:54;29.73;;;23.35;;
54269;SDS011;40181;51.560;13.000;2022-12-18T09:05:23;28.35;;;19.08;;
54269;SDS011;40181;51.560;13.000;2022-12-18T09:07:52;22.77;;;17.92;;
54269;SDS011;40181;51.560;13.000;2022-12-18T09:10:21;26.73;;;19.25;;
54269;SDS011;40181;51.560;13.000;2022-12-18T09:12:51;22.67;;;16.48;;
54269;SDS011;40181;51.560;13.000;2022-12-18T09:15:21;37.55;;;22.20;;
54269;SDS011;40181;51.560;13.000;2022-12-18T09:17:50;27.67;;;19.38;;
54269;SDS011;40181;51.560;13.000;2022-12-18T09:20:22;24.73;;;16.55;;
54269;SDS011;40181;51.560;13.000;2022-12-18T09:22:53;28.63;;;19.10;;
54269;SDS011;40181;51.560;13.000;2022-12-18T09:25:22;29.55;;;20.05;;
54269;SDS011;40181;51.560;13.000;2022-12-18T09:27:56;25.08;;;17.63;;
54269;SDS011;40181;51.560;13.000;2022-12-18T09:30:27;27.33;;;19.67;;
54269;SDS011;40181;51.560;13.000;2022-12-18T09:33:00;33.22;;;17.98;;
54269;SDS011;40181;51.560;13.000;2022-12-18T09:35:30;35.95;;;25.52;;
54269;SDS011;40181;51.560;13.000;2022-12-18T09:37:59;28.23;;;19.27;;
54269;SDS011;40181;51.560;13.000;2022-12-18T09:40:29;28.73;;;20.83;;
54269;SDS011;40181;51.560;13.000;2022-12-18T09:43:04;33.28;;;23.55;;
54269;SDS011;40181;51.560;13.000;2022-12-18T09:45:35;27.35;;;19.50;;
54269;SDS011;40181;51.560;13.000;2022-12-18T09:48:15;25.75;;;17.52;;
54269;SDS011;40181;51.560;13.000;2022-12-18T09:50:50;23.35;;;16.58;;
54269;SDS011;40181;51.560;13.000;2022-12-18T09:53:22;25.13;;;18.70;;
54269;SDS011;40181;51.560;13.000;2022-12-18T09:55:56;45.35;;;28.15;;
54269;SDS011;40181;51.560;13.000;2022-12-18T09:58:26;37.30;;;27.67;;
54269;SDS011;40181;51.560;13.000;2022-12-18T10:00:59;33.95;;;22.85;;
54269;SDS011;40181;51.560;13.000;2022-12-18T10:03:31;27.52;;;20.15;;
54269;SDS011;40181;51.560;13.000;2022-12-18T10:06:01;28.63;;;19.20;;
54269;SDS011;40181;51.560;13.000;2022-12-18T10:08:40;33.92;;;22.75;;
54269;SDS011;40181;51.560;13.000;2022-12-18T10:11:21;27.30;;;17.50;;
54269;SDS011;40181;51.560;13.000;2022-12-18T10:14:05;22.75;;;16.23;;
54269;SDS011;40181;51.560;13.000;2022-12-18T10:16:44;18.75;;;13.55;;
54269;SDS011;40181;51.560;13.000;2022-12-18T10:19:32;17.73;;;15.75;;
54269;SDS011;40181;51.560;13.000;2022-12-18T10:22:16;21.17;;;16.17;;
54269;SDS011;40181;51.560;13.000;2022-12-18T10:24:59;24.45;;;16.98;;
54269;SDS011;40181;51.560;13.000;2022-12-18T10:27:33;26.70;;;19.35;;
54269;SDS011;40181;51.560;13.000;2022-12-18T10:30:04;22.33;;;15.88;;
54269;SDS011;40181;51.560;13.000;2022-12-18T10:32:43;23.67;;;17.25;;
54269;SDS011;40181;51.560;13.000;2022-12-18T10:35:16;29.65;;;23.13;;
54269;SDS011;40181;51.560;13.000;2022-12-18T10:38:05;24.10;;;17.27;;
54269;SDS011;40181;51.560;13.000;2022-12-18T10:40:49;18.87;;;13.80;;
54269;SDS011;40181;51.560;13.000;2022-12-18T10:43:21;21.83;;;16.33;;
54269;SDS011;40181;51.560;13.000;2022-12-18T10:45:58;21.98;;;16.17;;
54269;SDS011;40181;51.560;13.000;2022-12-18T10:48:46;20.88;;;17.02;;
54269;SDS011;40181;51.560;13.000;2022-12-18T10:51:24;25.77;;;17.90;;
54269;SDS011;40181;51.560;13.000;2022-12-18T10:53:59;18.48;;;15.35;;
54269;SDS011;40181;51.560;13.000;2022-12-18T10:56:33;17.42;;;14.18;;
54269;SDS011;40181;51.560;13.000;2022-12-18T10:59:05;19.55;;;15.55;;
54269;SDS011;40181;51.560;13.000;2022-12-18T11:01:45;19.10;;;15.52;;
54269;SDS011;40181;51.560;13.000;2022-12-18T11:04:20;26.83;;;20.98;;
54269;SDS011;40181;51.560;13.000;2022-12-18T11:06:55;19.58;;;14.65;;
54269;SDS011;40181;51.560;13.000;2022-12-18T11:09:28;24.63;;;17.45;;
54269;SDS011;40181;51.560;13.000;2022-12-18T11:12:01;22.00;;;17.08;;
54269;SDS011;40181;51.560;13.000;2022-12-18T11:14:34;22.65;;;18.75;;
54269;SDS011;40181;51.560;13.000;2022-12-18T11:17:17;19.45;;;14.13;;
54269;SDS011;40181;51.560;13.000;2022-12-18T11:19:52;20.85;;;16.20;;
54269;SDS011;40181;51.560;13.000;2022-12-18T11:22:26;26.70;;;16.75;;
54269;SDS011;40181;51.560;13.000;2022-12-18T11:24:58;26.17;;;19.15;;
54269;SDS011;40181;51.560;13.000;2022-12-18T11:27:30;17.00;;;15.20;;
54269;SDS011;40181;51.560;13.000;2022-12-18T11:30:07;23.52;;;17.67;;
54269;SDS011;40181;51.560;13.000;2022-12-18T11:32:49;23.02;;;16.52;;
54269;SDS011;40181;51.560;13.000;2022-12-18T11:35:31;20.83;;;15.90;;
54269;SDS011;40181;51.560;13.000;2022-12-18T11:38:14;17.45;;;14.50;;
54269;SDS011;40181;51.560;13.000;2022-12-18T11:40:52;23.88;;;17.08;;
54269;SDS011;40181;51.560;13.000;2022-12-18T11:43:27;19.63;;;15.65;;
54269;SDS011;40181;51.560;13.000;2022-12-18T11:46:02;24.67;;;19.30;;
54269;SDS011;40181;51.560;13.000;2022-12-18T11:48:37;24.67;;;17.88;;
54269;SDS011;40181;51.560;13.000;2022-12-18T11:51:14;31.15;;;20.92;;
54269;SDS011;40181;51.560;13.000;2022-12-18T11:53:53;24.65;;;17.55;;
54269;SDS011;40181;51.560;13.000;2022-12-18T11:56:26;21.52;;;17.10;;
54269;SDS011;40181;51.560;13.000;2022-12-18T11:59:04;22.17;;;18.17;;
54269;SDS011;40181;51.560;13.000;2022-12-18T12:01:46;19.10;;;14.68;;
54269;SDS011;40181;51.560;13.000;2022-12-18T12:04:28;21.45;;;16.17;;
54269;SDS011;40181;51.560;13.000;2022-12-18T12:07:17;22.02;;;15.55;;
54269;SDS011;40181;51.560;13.000;2022-12-18T12:10:06;21.02;;;18.17;;
54269;SDS011;40181;51.560;13.000;2022-12-18T12:12:55;19.52;;;15.00;;
54269;SDS011;40181;51.560;13.000;2022-12-18T12:15:55;17.33;;;14.32;;
54269;SDS011;40181;51.560;13.000;2022-12-18T12:18:40;20.65;;;15.15;;
54269;SDS011;40181;51.560;13.000;2022-12-18T12:21:24;17.52;;;15.27;;
54269;SDS011;40181;51.560;13.000;2022-12-18T12:24:02;23.05;;;17.42;;
54269;SDS011;40181;51.560;13.000;2022-12-18T12:26:49;25.35;;;16.65;;
54269;SDS011;40181;51.560;13.000;2022-12-18T12:29:34;21.67;;;16.08;;
54269;SDS011;40181;51.560;13.000;2022-12-18T12:32:18;15.40;;;13.65;;
54269;SDS011;40181;51.560;13.000;2022-12-18T12:35:17;23.65;;;17.02;;
54269;SDS011;40181;51.560;13.000;2022-12-18T12:38:03;22.15;;;15.80;;
54269;SDS011;40181;51.560;13.000;2022-12-18T12:40:37;22.95;;;16.20;;
54269;SDS011;40181;51.560;13.000;2022-12-18T12:43:19;21.08;;;16.45;;
54269;SDS011;40181;51.560;13.000;2022-12-18T12:45:53;25.10;;;16.98;;
54269;SDS011;40181;51.560;13.000;2022-12-18T12:48:35;23.10;;;17.13;;
54269;SDS011;40181;51.560;13.000;2022-12-18T12:51:12;18.73;;;15.98;;
54269;SDS011;40181;51.560;13.000;2022-12-18T12:53:45;19.00;;;15.20;;
54269;SDS011;40181;51.560;13.000;2022-12-18T12:56:16;23.73;;;17.00;;
54269;SDS011;40181;51.560;13.000;2022-12-18T12:58:52;21.73;;;15.50;;
54269;SDS011;40181;51.560;13.000;2022-12-18T13:01:34;25.75;;;16.92;;
54269;SDS011;40181;51.560;13.000;2022-12-18T13:04:13;17.70;;;15.80;;
54269;SDS011;40181;51.560;13.000;2022-12-18T13:06:53;19.63;;;14.05;;
54269;SDS011;40181;51.560;13.000;2022-12-18T13:09:29;20.23;;;15.95;;
54269;SDS011;40181;51.560;13.000;2022-12-18T13:12:01;19.92;;;15.52;;
54269;SDS011;40181;51.560;13.000;2022-12-18T13:14:47;22.85;;;15.90;;
54269;SDS011;40181;51.560;13.000;2022-12-18T13:17:21;21.15;;;15.85;;
54269;SDS011;40181;51.560;13.000;2022-12-18T13:20:07;20.80;;;15.90;;
54269;SDS011;40181;51.560;13.000;2022-12-18T13:22:41;19.70;;;15.07;;
54269;SDS011;40181;51.560;13.000;2022-12-18T13:28:07;20.73;;;15.05;;
54269;SDS011;40181;51.560;13.000;2022-12-18T13:30:49;19.77;;;15.70;;
54269;SDS011;40181;51.560;13.000;2022-12-18T13:36:25;20.23;;;16.73;;
54269;SDS011;40181;51.560;13.000;2022-12-18T13:41:53;22.33;;;16.23;;
54269;SDS011;40181;51.560;13.000;2022-12-18T13:48:23;20.23;;;15.55;;
54269;SDS011;40181;51.560;13.000;2022-12-18T13:50:56;26.13;;;16.33;;
54269;SDS011;40181;51.560;13.000;2022-12-18T13:53:30;20.83;;;16.02;;
54269;SDS011;40181;51.560;13.000;2022-12-18T13:56:05;21.60;;;16.23;;
54269;SDS011;40181;51.560;13.000;2022-12-18T13:58:35;21.58;;;16.20;;
54269;SDS011;40181;51.560;13.000;2022-12-18T14:01:04;25.00;;;15.95;;
54269;SDS011;40181;51.560;13.000;2022-12-18T14:03:40;21.33;;;14.95;;
54269;SDS011;40181;51.560;13.000;2022-12-18T14:06:10;18.60;;;16.05;;
54269;SDS011;40181;51.560;13.000;2022-12-18T14:08:41;21.15;;;14.60;;
54269;SDS011;40181;51.560;13.000;2022-12-18T14:11:18;22.23;;;15.52;;
54269;SDS011;40181;51.560;13.000;2022-12-18T14:13:50;16.25;;;14.35;;
54269;SDS011;40181;51.560;13.000;2022-12-18T14:16:20;18.17;;;14.73;;
54269;SDS011;40181;51.560;13.000;2022-12-18T14:18:54;20.52;;;15.65;;
54269;SDS011;40181;51.560;13.000;2022-12-18T14:21:26;22.13;;;16.98;;
54269;SDS011;40181;51.560;13.000;2022-12-18T14:24:12;18.00;;;14.63;;
54269;SDS011;40181;51.560;13.000;2022-12-18T14:26:44;19.33;;;13.23;;
54269;SDS011;40181;51.560;13.000;2022-12-18T14:29:18;17.60;;;14.27;;
54269;SDS011;40181;51.560;13.000;2022-12-18T14:32:03;19.38;;;15.52;;
54269;SDS011;40181;51.560;13.000;2022-12-18T14:34:39;24.38;;;16.02;;
54269;SDS011;40181;51.560;13.000;2022-12-18T14:37:09;17.70;;;14.77;;
54269;SDS011;40181;51.560;13.000;2022-12-18T14:39:40;19.67;;;15.25;;
54269;SDS011;40181;51.560;13.000;2022-12-18T14:42:22;22.10;;;15.60;;
54269;SDS011;40181;51.560;13.000;2022-12-18T14:48:07;15.73;;;13.55;;
54269;SDS011;40181;51.560;13.000;2022-12-18T14:50:54;20.05;;;14.45;;
54269;SDS011;40181;51.560;13.000;2022-12-18T14:53:37;20.33;;;16.08;;
54269;SDS011;40181;51.560;13.000;2022-12-18T14:56:13;26.00;;;16.08;;
54269;SDS011;40181;51.560;13.000;2022-12-18T14:58:46;16.98;;;15.15;;
54269;SDS011;40181;51.560;13.000;2022-12-18T15:01:21;19.92;;;14.20;;
54269;SDS011;40181;51.560;13.000;2022-12-18T15:03:56;18.05;;;13.85;;
54269;SDS011;40181;51.560;13.000;2022-12-18T15:06:32;17.25;;;13.80;;
54269;SDS011;40181;51.560;13.000;2022-12-18T15:09:05;21.58;;;15.43;;
54269;SDS011;40181;51.560;13.000;2022-12-18T15:11:55;15.32;;;12.95;;